createdAt,value
2018-02-10T00:01:13.986Z,100924.77
2018-02-10T00:03:47.252Z,100935.00
2018-02-10T00:06:17.967Z,100934.60
2018-02-10T00:08:51.111Z,100937.16
2018-02-10T00:11:22.663Z,100925.23
2018-02-10T00:16:39.201Z,100933.00
2018-02-10T00:19:17.233Z,100929.03
2018-02-10T00:21:50.105Z,100936.38
2018-02-10T00:24:22.837Z,100935.47
2018-02-10T00:26:53.252Z,100928.12
2018-02-10T00:29:25.536Z,100938.31
2018-02-10T00:31:56.499Z,100936.03
2018-02-10T00:34:27.978Z,100936.37
2018-02-10T00:39:48.374Z,100933.70
2018-02-10T00:44:56.543Z,100936.38
2018-02-10T00:47:30.119Z,100947.19
2018-02-10T00:58:27.310Z,100939.12
2018-02-10T01:00:58.285Z,100954.78
2018-02-10T01:03:32.142Z,100949.90
2018-02-10T01:06:03.536Z,100953.85
2018-02-10T01:14:30.511Z,100951.22
2018-02-10T01:17:04.934Z,100947.05
2018-02-10T01:26:34.152Z,100954.77
2018-02-10T01:29:17.160Z,100960.75
2018-02-10T01:31:54.609Z,100955.40
2018-02-10T01:40:24.342Z,100964.44
2018-02-10T01:53:15.260Z,100960.28
2018-02-10T01:55:46.774Z,100961.84
2018-02-10T01:58:17.712Z,100958.17
2018-02-10T02:00:48.112Z,100963.40
2018-02-10T02:03:20.190Z,100958.63
2018-02-10T02:12:59.609Z,100951.86
2018-02-10T02:15:32.024Z,100954.94
2018-02-10T02:18:05.867Z,100955.98
2018-02-10T02:20:42.486Z,100958.05
2018-02-10T02:23:13.587Z,100963.11
2018-02-10T02:28:31.960Z,100963.11
2018-02-10T02:34:02.377Z,100972.47
2018-02-10T02:36:33.973Z,100973.69
2018-02-10T02:39:06.841Z,100969.48
2018-02-10T02:41:37.651Z,100973.73
2018-02-10T02:44:12.551Z,100977.61
2018-02-10T02:46:50.078Z,100948.05
2018-02-10T02:52:04.080Z,100959.67
2018-02-10T02:54:35.914Z,100966.21
2018-02-10T02:57:09.140Z,100968.46
2018-02-10T02:59:40.125Z,100971.72
2018-02-10T03:02:18.042Z,100971.48
2018-02-10T03:07:30.567Z,100983.80
2018-02-10T03:10:06.843Z,100985.32
2018-02-10T03:12:39.335Z,100983.53
2018-02-10T03:15:15.211Z,100987.09
2018-02-10T03:17:46.525Z,100984.70
2018-02-10T03:20:22.263Z,100993.58
2018-02-10T03:22:58.837Z,100996.64
2018-02-10T03:25:53.604Z,100996.59
2018-02-10T03:28:29.679Z,101000.98
2018-02-10T03:31:09.402Z,100996.75
2018-02-10T03:36:34.857Z,101003.57
2018-02-10T03:45:00.975Z,101002.48
2018-02-10T03:47:33.635Z,101002.08
2018-02-10T03:50:05.138Z,101016.91
2018-02-10T03:52:38.892Z,101008.42
2018-02-10T03:55:09.670Z,101009.97
2018-02-10T03:57:42.661Z,101022.95
2018-02-10T04:06:03.167Z,101035.28
2018-02-10T04:08:42.308Z,101033.49
2018-02-10T04:11:17.863Z,101011.09
2018-02-10T04:18:11.259Z,101031.78
2018-02-10T04:20:45.860Z,101034.38
2018-02-10T04:23:17.878Z,101037.41
2018-02-10T04:25:51.094Z,101036.73
2018-02-10T04:28:26.052Z,101035.76
2018-02-10T04:30:57.357Z,101041.05
2018-02-10T04:36:50.107Z,101047.05
2018-02-10T04:39:31.592Z,101042.06
2018-02-10T04:42:03.514Z,101044.64
2018-02-10T04:47:35.481Z,101046.84
2018-02-10T04:50:12.521Z,101054.05
2018-02-10T04:52:44.572Z,101052.56
2018-02-10T04:55:15.741Z,101055.00
2018-02-10T04:57:52.291Z,101060.02
2018-02-10T05:00:43.339Z,101058.22
2018-02-10T05:06:08.964Z,101051.48
2018-02-10T05:08:40.204Z,101051.43
2018-02-10T05:11:10.563Z,101055.74
2018-02-10T05:13:45.780Z,101062.83
2018-02-10T05:16:20.237Z,101063.11
2018-02-10T05:18:53.981Z,101062.86
2018-02-10T05:21:43.654Z,101043.02
2018-02-10T05:29:53.920Z,101053.84
2018-02-10T05:32:34.928Z,101055.98
2018-02-10T05:41:49.980Z,101054.73
2018-02-10T05:44:21.816Z,101045.10
2018-02-10T05:46:55.805Z,101056.55
2018-02-10T05:49:32.019Z,101050.58
2018-02-10T05:52:08.337Z,101060.61
2018-02-10T05:54:47.962Z,101063.41
2018-02-10T05:57:27.210Z,101068.06
2018-02-10T06:05:30.768Z,101068.79
2018-02-10T06:08:07.712Z,101062.99
2018-02-10T06:10:43.553Z,101060.61
2018-02-10T06:13:22.568Z,101049.48
2018-02-10T06:15:59.376Z,101053.34
2018-02-10T06:18:31.711Z,101058.03
2018-02-10T06:21:05.263Z,101053.68
2018-02-10T06:23:42.157Z,101057.53
2018-02-10T06:26:14.529Z,101054.70
2018-02-10T06:43:07.662Z,101042.55
2018-02-10T06:45:47.664Z,101046.36
2018-02-10T06:51:11.602Z,101054.52
2018-02-10T06:53:46.826Z,101051.83
2018-02-10T06:56:24.375Z,101053.78
2018-02-10T06:58:59.604Z,101062.66
2018-02-10T07:01:33.994Z,101059.81
2018-02-10T07:04:05.708Z,101067.94
2018-02-10T07:06:43.684Z,101069.88
2018-02-10T07:09:15.913Z,101060.85
2018-02-10T07:11:47.926Z,101066.61
2018-02-10T07:14:26.956Z,101073.43
2018-02-10T07:23:03.222Z,101086.83
2018-02-10T07:25:33.835Z,101098.73
2018-02-10T07:28:09.412Z,101100.80
2018-02-10T07:30:41.087Z,101114.64
2018-02-10T07:33:21.564Z,101119.27
2018-02-10T07:35:54.247Z,101096.03
2018-02-10T07:38:28.753Z,101116.70
2018-02-10T07:41:03.892Z,101111.25
2018-02-10T07:43:38.239Z,101112.83
2018-02-10T07:48:58.695Z,101104.92
2018-02-10T07:54:07.701Z,101102.97
2018-02-10T07:56:49.287Z,101105.44
2018-02-10T07:59:21.571Z,101099.41
2018-02-10T08:02:02.785Z,101098.14
2018-02-10T08:10:29.757Z,101092.73
2018-02-10T08:13:01.044Z,101091.13
2018-02-10T08:15:32.163Z,101102.02
2018-02-10T08:18:11.780Z,101106.19
2018-02-10T08:20:45.624Z,101106.76
2018-02-10T08:25:58.903Z,101102.60
2018-02-10T08:28:32.400Z,101102.44
2018-02-10T08:31:04.278Z,101111.87
2018-02-10T08:33:43.270Z,101107.09
2018-02-10T08:36:14.518Z,101114.25
2018-02-10T08:38:44.987Z,101120.28
2018-02-10T08:41:16.194Z,101129.03
2018-02-10T08:43:54.269Z,101124.22
2018-02-10T08:56:33.259Z,101110.22
2018-02-10T08:59:12.176Z,101118.22
2018-02-10T09:01:56.486Z,101119.54
2018-02-10T09:04:28.934Z,101119.84
2018-02-10T09:07:00.306Z,101117.83
2018-02-10T09:09:43.960Z,101118.16
2018-02-10T09:21:07.001Z,101134.53
2018-02-10T09:23:38.531Z,101128.24
2018-02-10T09:26:12.264Z,101128.91
2018-02-10T09:35:09.131Z,101139.48
2018-02-10T09:37:41.915Z,101137.71
2018-02-10T09:40:17.870Z,101134.29
2018-02-10T09:42:55.378Z,101144.10
2018-02-10T09:45:29.269Z,101153.97
2018-02-10T09:50:40.883Z,101160.89
2018-02-10T09:53:12.190Z,101157.66
2018-02-10T09:55:45.081Z,101153.41
2018-02-10T09:58:24.792Z,101147.68
2018-02-10T10:01:02.513Z,101146.13
2018-02-10T10:10:57.598Z,101142.63
2018-02-10T10:13:28.200Z,101145.09
2018-02-10T10:16:09.456Z,101133.50
2018-02-10T10:21:17.154Z,101147.27
2018-02-10T10:23:49.490Z,101146.55
2018-02-10T10:26:34.100Z,101155.77
2018-02-10T10:29:07.616Z,101159.16
2018-02-10T10:40:19.469Z,101165.41
2018-02-10T10:43:05.830Z,101160.78
2018-02-10T10:45:38.286Z,101157.94
2018-02-10T10:48:13.898Z,101154.25
2018-02-10T10:50:50.859Z,101155.84
2018-02-10T10:53:30.232Z,101151.50
2018-02-10T11:00:08.939Z,101151.27
2018-02-10T11:02:40.253Z,101153.11
2018-02-10T11:05:13.794Z,101145.24
2018-02-10T11:07:48.982Z,101149.30
2018-02-10T11:10:23.754Z,101144.89
2018-02-10T11:12:55.249Z,101135.89
2018-02-10T11:15:38.691Z,101144.88
2018-02-10T11:18:22.173Z,101145.94
2018-02-10T11:20:56.505Z,101141.70
2018-02-10T11:23:31.633Z,101142.77
2018-02-10T11:26:02.926Z,101149.48
2018-02-10T11:28:33.295Z,101149.55
2018-02-10T11:31:04.873Z,101147.98
2018-02-10T11:33:35.344Z,101148.51
2018-02-10T11:36:06.895Z,101141.45
2018-02-10T11:38:37.865Z,101142.77
2018-02-10T11:41:08.703Z,101133.88
2018-02-10T11:43:46.294Z,101147.55
2018-02-10T11:52:12.263Z,101134.64
2018-02-10T12:06:04.354Z,101131.56
2018-02-10T12:08:37.248Z,101127.20
2018-02-10T12:11:08.109Z,101133.78
2018-02-10T12:13:40.649Z,101127.66
2018-02-10T12:16:12.174Z,101130.95
2018-02-10T12:18:42.793Z,101127.44
2018-02-10T12:21:13.295Z,101121.02
2018-02-10T12:23:44.004Z,101124.58
2018-02-10T12:26:14.942Z,101119.46
2018-02-10T12:28:45.448Z,101120.70
2018-02-10T12:31:23.513Z,101114.81
2018-02-10T12:33:59.764Z,101122.18
2018-02-10T12:36:30.422Z,101122.70
2018-02-10T12:39:01.979Z,101121.25
2018-02-10T12:41:32.883Z,101111.37
2018-02-10T12:44:04.184Z,101117.97
2018-02-10T12:46:34.700Z,101112.30
2018-02-10T12:49:11.192Z,101112.55
2018-02-10T12:51:42.294Z,101112.16
2018-02-10T12:54:31.050Z,101105.56
2018-02-10T12:57:04.414Z,101111.42
2018-02-10T12:59:38.886Z,101106.33
2018-02-10T13:04:47.555Z,101100.40
2018-02-10T13:07:44.362Z,101087.23
2018-02-10T13:10:17.809Z,101098.16
2018-02-10T13:12:55.377Z,101095.75
2018-02-10T13:15:26.585Z,101094.89
2018-02-10T13:17:58.755Z,101090.05
2018-02-10T13:20:36.566Z,101080.30
2018-02-10T13:23:26.790Z,101083.63
2018-02-10T13:26:02.591Z,101083.91
2018-02-10T13:28:43.311Z,101076.02
2018-02-10T13:31:30.179Z,101056.17
2018-02-10T13:34:20.668Z,101073.30
2018-02-10T13:36:53.996Z,101072.89
2018-02-10T13:39:30.730Z,101077.44
2018-02-10T13:42:05.630Z,101076.22
2018-02-10T13:44:36.433Z,101077.16
2018-02-10T13:47:15.607Z,101073.00
2018-02-10T13:49:46.210Z,101071.25
2018-02-10T13:52:20.209Z,101078.38
2018-02-10T13:55:02.265Z,101077.17
2018-02-10T13:57:33.175Z,101083.05
2018-02-10T14:00:08.392Z,101072.97
2018-02-10T14:02:39.654Z,101064.63
2018-02-10T14:05:10.829Z,101072.55
2018-02-10T14:07:50.667Z,101064.61
2018-02-10T14:10:22.876Z,101068.09
2018-02-10T14:15:25.547Z,101070.20
2018-02-10T14:17:56.365Z,101064.25
2018-02-10T14:20:28.410Z,101047.40
2018-02-10T14:23:00.198Z,101067.14
2018-02-10T14:25:31.260Z,101065.31
2018-02-10T14:28:09.728Z,101062.19
2018-02-10T14:30:42.343Z,101064.08
2018-02-10T14:33:13.495Z,101062.59
2018-02-10T14:35:45.255Z,101045.38
2018-02-10T14:38:18.826Z,101055.29
2018-02-10T14:40:51.720Z,101052.20
2018-02-10T14:43:28.265Z,101054.52
2018-02-10T14:46:14.266Z,101046.45
2018-02-10T14:48:47.958Z,101053.17
2018-02-10T14:51:19.191Z,101053.16
2018-02-10T14:53:50.435Z,101053.28
2018-02-10T14:56:21.747Z,101057.11
2018-02-10T14:58:54.467Z,101056.95
2018-02-10T15:04:04.654Z,101062.03
2018-02-10T15:06:37.040Z,101053.20
2018-02-10T15:09:08.399Z,101050.77
2018-02-10T15:11:38.994Z,101049.41
2018-02-10T15:14:10.654Z,101050.91
2018-02-10T15:16:42.931Z,101053.95
2018-02-10T15:19:13.859Z,101058.93
2018-02-10T15:21:51.022Z,101058.14
2018-02-10T15:24:23.692Z,101056.70
2018-02-10T15:26:55.210Z,101053.90
2018-02-10T15:29:25.911Z,101049.02
2018-02-10T15:34:08.804Z,101058.39
2018-02-10T15:36:40.074Z,101051.98
2018-02-10T15:39:16.036Z,101052.62
2018-02-10T15:41:47.562Z,101049.64
2018-02-10T15:44:18.448Z,101051.94
2018-02-10T15:46:50.378Z,101028.89
2018-02-10T15:49:20.843Z,101049.27
2018-02-10T15:52:03.093Z,101029.50
2018-02-10T15:54:39.591Z,101045.62
2018-02-10T15:57:10.488Z,101045.67
2018-02-10T15:59:49.324Z,101032.50
2018-02-10T16:05:02.918Z,101037.28
2018-02-10T16:07:33.572Z,101021.34
2018-02-10T16:10:05.146Z,101034.41
2018-02-10T16:12:38.814Z,101032.36
2018-02-10T16:15:13.585Z,101031.58
2018-02-10T16:17:48.560Z,101025.48
2018-02-10T16:20:20.551Z,101012.38
2018-02-10T16:22:59.987Z,101026.14
2018-02-10T16:25:36.246Z,101014.73
2018-02-10T16:28:15.127Z,101009.63
2018-02-10T16:30:50.957Z,101011.12
2018-02-10T16:33:26.311Z,101010.75
2018-02-10T16:36:10.157Z,101013.28
2018-02-10T16:38:44.915Z,101017.82
2018-02-10T16:41:19.293Z,101004.70
2018-02-10T16:43:50.945Z,101013.61
2018-02-10T16:46:52.418Z,101002.56
2018-02-10T16:49:33.801Z,101004.46
2018-02-10T16:52:17.727Z,101003.14
2018-02-10T16:54:50.259Z,101007.91
2018-02-10T16:57:21.955Z,101010.98
2018-02-10T16:59:52.984Z,101012.26
2018-02-10T17:02:26.988Z,101005.78
2018-02-10T17:05:04.741Z,101009.33
2018-02-10T17:07:36.911Z,101004.38
2018-02-10T17:10:10.707Z,101008.46
2018-02-10T17:12:42.729Z,101001.58
2018-02-10T17:15:16.471Z,100994.41
2018-02-10T17:17:47.198Z,100990.02
2018-02-10T17:20:18.496Z,100993.97
2018-02-10T17:22:49.563Z,100995.14
2018-02-10T17:25:22.420Z,100988.92
2018-02-10T17:30:33.646Z,100986.91
2018-02-10T17:33:07.142Z,100979.30
2018-02-10T17:35:39.813Z,100980.11
2018-02-10T17:38:11.090Z,100988.25
2018-02-10T17:40:44.358Z,100988.05
2018-02-10T17:43:20.837Z,100982.47
2018-02-10T17:45:52.054Z,100990.09
2018-02-10T17:48:23.274Z,100996.30
2018-02-10T17:50:55.149Z,100992.23
2018-02-10T17:53:26.766Z,100991.55
2018-02-10T17:55:57.338Z,100989.03
2018-02-10T17:58:32.741Z,100992.31
2018-02-10T18:01:04.532Z,100993.55
2018-02-10T18:03:35.955Z,100996.30
2018-02-10T18:06:07.660Z,100994.48
2018-02-10T18:08:38.831Z,100995.52
2018-02-10T18:11:10.775Z,100986.84
2018-02-10T18:13:46.891Z,100990.29
2018-02-10T18:16:19.069Z,100985.73
2018-02-10T18:18:51.589Z,100984.23
2018-02-10T18:21:24.922Z,100976.63
2018-02-10T18:23:58.776Z,100966.29
2018-02-10T18:26:30.060Z,100972.49
2018-02-10T18:29:01.726Z,100962.02
2018-02-10T18:31:34.359Z,100961.33
2018-02-10T18:34:06.652Z,100953.85
2018-02-10T18:36:38.362Z,100952.70
2018-02-10T18:39:10.866Z,100944.22
2018-02-10T18:41:42.344Z,100940.03
2018-02-10T18:44:13.542Z,100940.38
2018-02-10T18:46:46.109Z,100939.52
2018-02-10T18:49:20.030Z,100936.52
2018-02-10T18:51:52.052Z,100929.47
2018-02-10T18:54:24.230Z,100921.37
2018-02-10T18:56:54.922Z,100921.80
2018-02-10T18:59:27.542Z,100912.84
2018-02-10T19:02:00.154Z,100902.97
2018-02-10T19:04:33.514Z,100909.62
2018-02-10T19:07:05.992Z,100903.40
2018-02-10T19:09:36.776Z,100901.31
2018-02-10T19:12:07.734Z,100895.77
2018-02-10T19:14:43.149Z,100894.84
2018-02-10T19:17:15.554Z,100895.68
2018-02-10T19:19:51.889Z,100896.77
2018-02-10T19:22:22.664Z,100891.28
2018-02-10T19:24:54.952Z,100900.85
2018-02-10T19:27:27.887Z,100908.25
2018-02-10T19:30:00.669Z,100901.41
2018-02-10T19:32:39.510Z,100889.50
2018-02-10T19:35:11.228Z,100888.10
2018-02-10T19:37:45.734Z,100890.92
2018-02-10T19:40:20.478Z,100890.56
2018-02-10T19:42:55.367Z,100881.75
2018-02-10T19:45:27.305Z,100871.37
2018-02-10T19:47:58.377Z,100869.23
2018-02-10T19:50:28.869Z,100856.33
2018-02-10T19:53:00.655Z,100856.15
2018-02-10T19:55:31.813Z,100842.12
2018-02-10T19:58:04.684Z,100840.70
2018-02-10T20:00:36.726Z,100836.96
2018-02-10T20:03:11.713Z,100829.16
2018-02-10T20:05:44.398Z,100827.88
2018-02-10T20:08:17.608Z,100826.81
2018-02-10T20:10:48.605Z,100828.53
2018-02-10T20:13:19.433Z,100831.20
2018-02-10T20:15:51.613Z,100826.38
2018-02-10T20:18:22.263Z,100823.78
2018-02-10T20:20:54.093Z,100836.14
2018-02-10T20:23:25.538Z,100836.45
2018-02-10T20:25:57.341Z,100834.50
2018-02-10T20:28:28.269Z,100830.34
2018-02-10T20:30:59.125Z,100825.34
2018-02-10T20:33:29.897Z,100817.66
2018-02-10T20:36:01.629Z,100827.45
2018-02-10T20:38:32.352Z,100817.42
2018-02-10T20:41:03.030Z,100806.13
2018-02-10T20:43:34.457Z,100808.72
2018-02-10T20:46:06.350Z,100804.75
2018-02-10T20:48:38.425Z,100802.28
2018-02-10T20:51:09.635Z,100802.08
2018-02-10T20:53:41.633Z,100798.36
2018-02-10T20:56:13.111Z,100793.73
2018-02-10T20:58:44.203Z,100793.44
2018-02-10T21:01:16.301Z,100795.56
2018-02-10T21:03:48.013Z,100776.09
2018-02-10T21:06:20.688Z,100786.17
2018-02-10T21:08:52.579Z,100782.47
2018-02-10T21:11:25.046Z,100773.67
2018-02-10T21:13:56.263Z,100761.99
2018-02-10T21:16:27.558Z,100742.78
2018-02-10T21:18:58.471Z,100750.18
2018-02-10T21:21:29.460Z,100748.33
2018-02-10T21:24:01.673Z,100746.75
2018-02-10T21:26:33.376Z,100747.56
2018-02-10T21:29:05.227Z,100735.33
2018-02-10T21:31:39.263Z,100738.69
2018-02-10T21:34:10.323Z,100746.05
2018-02-10T21:36:40.875Z,100738.95
2018-02-10T21:39:12.485Z,100727.64
2018-02-10T21:41:43.425Z,100733.45
2018-02-10T21:44:15.336Z,100711.76
2018-02-10T21:46:49.290Z,100713.74
2018-02-10T21:49:21.370Z,100703.53
2018-02-10T21:51:53.138Z,100711.87
2018-02-10T21:54:24.549Z,100709.15
2018-02-10T21:56:57.253Z,100702.05
2018-02-10T21:59:28.998Z,100683.42
2018-02-10T22:02:01.433Z,100688.03
2018-02-10T22:04:34.241Z,100678.79
2018-02-10T22:07:07.016Z,100671.31
2018-02-10T22:09:38.438Z,100665.11
2018-02-10T22:12:10.146Z,100662.31
2018-02-10T22:14:41.321Z,100650.16
2018-02-10T22:17:12.304Z,100639.16
2018-02-10T22:19:45.249Z,100636.03
2018-02-10T22:22:16.209Z,100630.08
2018-02-10T22:24:47.177Z,100627.75
2018-02-10T22:27:18.597Z,100624.43
2018-02-10T22:29:50.453Z,100613.02
2018-02-10T22:32:22.466Z,100618.03
2018-02-10T22:34:53.531Z,100605.34
2018-02-10T22:37:25.114Z,100594.34
2018-02-10T22:39:56.646Z,100595.97
2018-02-10T22:42:28.491Z,100596.92
2018-02-10T22:44:59.818Z,100590.90
2018-02-10T22:47:30.959Z,100595.00
2018-02-10T22:50:01.400Z,100578.81
2018-02-10T22:52:32.605Z,100584.22
2018-02-10T22:55:05.303Z,100571.72
2018-02-10T22:57:38.679Z,100566.03
2018-02-10T23:00:14.236Z,100564.84
2018-02-10T23:02:47.982Z,100560.69
2018-02-10T23:05:21.414Z,100557.29
2018-02-10T23:07:53.351Z,100545.05
2018-02-10T23:10:24.452Z,100553.64
2018-02-10T23:12:56.098Z,100544.27
2018-02-10T23:15:28.047Z,100536.27
2018-02-10T23:17:59.515Z,100527.95
2018-02-10T23:20:30.462Z,100510.65
2018-02-10T23:23:02.302Z,100514.80
2018-02-10T23:25:38.197Z,100503.23
2018-02-10T23:28:09.231Z,100488.65
2018-02-10T23:30:41.557Z,100486.80
2018-02-10T23:33:12.914Z,100473.50
2018-02-10T23:35:43.826Z,100470.39
2018-02-10T23:38:14.794Z,100485.38
2018-02-10T23:40:45.659Z,100449.20
2018-02-10T23:43:16.716Z,100432.47
2018-02-10T23:45:47.612Z,100443.98
2018-02-10T23:48:19.622Z,100440.50
2018-02-10T23:50:50.828Z,100426.61
2018-02-10T23:53:22.008Z,100427.15
2018-02-10T23:55:52.612Z,100429.36
2018-02-10T23:58:24.034Z,100410.48
